sensor_id;sensor_type;location;lat;lon;timestamp;temperature;humidity
13446;DHT22;6795;51.232;3.764;2023-05-23T01:39:08;13.40;99.90
13446;DHT22;6795;51.232;3.764;2023-05-23T01:41:37;13.10;99.90
13446;DHT22;6795;51.232;3.764;2023-05-23T01:44:07;13.10;99.90
13446;DHT22;6795;51.232;3.764;2023-05-23T01:46:39;13.10;99.90
13446;DHT22;6795;51.232;3.764;2023-05-23T01:49:12;13.10;99.90
13446;DHT22;6795;51.232;3.764;2023-05-23T01:51:41;13.10;99.90
13446;DHT22;6795;51.232;3.764;2023-05-23T01:54:10;13.10;99.90
13446;DHT22;6795;51.232;3.764;2023-05-23T01:56:40;13.10;99.90
13446;DHT22;6795;51.232;3.764;2023-05-23T01:59:10;13.20;99.90
13446;DHT22;6795;51.232;3.764;2023-05-23T02:01:40;13.20;99.90
13446;DHT22;6795;51.232;3.764;2023-05-23T02:04:08;13.20;99.90
13446;DHT22;6795;51.232;3.764;2023-05-23T02:06:38;13.20;99.90
13446;DHT22;6795;51.232;3.764;2023-05-23T02:09:07;13.20;99.90
13446;DHT22;6795;51.232;3.764;2023-05-23T02:11:36;13.20;99.90
13446;DHT22;6795;51.232;3.764;2023-05-23T02:14:04;13.30;99.90
13446;DHT22;6795;51.232;3.764;2023-05-23T02:16:34;13.30;99.90
13446;DHT22;6795;51.232;3.764;2023-05-23T02:19:03;13.30;99.90
13446;DHT22;6795;51.232;3.764;2023-05-23T02:21:31;13.30;99.90
13446;DHT22;6795;51.232;3.764;2023-05-23T02:24:01;13.40;99.90
13446;DHT22;6795;51.232;3.764;2023-05-23T02:26:30;13.30;99.90
13446;DHT22;6795;51.232;3.764;2023-05-23T02:28:58;13.30;99.90
13446;DHT22;6795;51.232;3.764;2023-05-23T02:31:27;13.30;99.90
13446;DHT22;6795;51.232;3.764;2023-05-23T02:33:57;13.30;99.90
13446;DHT22;6795;51.232;3.764;2023-05-23T02:36:25;13.40;99.90
13446;DHT22;6795;51.232;3.764;2023-05-23T02:38:53;13.40;99.90
13446;DHT22;6795;51.232;3.764;2023-05-23T02:41:22;13.40;99.90
13446;DHT22;6795;51.232;3.764;2023-05-23T02:43:51;13.40;99.90
13446;DHT22;6795;51.232;3.764;2023-05-23T02:46:19;13.40;99.90
13446;DHT22;6795;51.232;3.764;2023-05-23T02:48:48;13.40;99.90
13446;DHT22;6795;51.232;3.764;2023-05-23T02:51:18;13.40;99.90
13446;DHT22;6795;51.232;3.764;2023-05-23T02:53:47;13.40;99.90
13446;DHT22;6795;51.232;3.764;2023-05-23T02:56:15;13.30;99.90
13446;DHT22;6795;51.232;3.764;2023-05-23T02:58:44;13.30;99.90
13446;DHT22;6795;51.232;3.764;2023-05-23T04:21:00;13.40;99.90
13446;DHT22;6795;51.232;3.764;2023-05-23T04:23:29;13.00;99.90
13446;DHT22;6795;51.232;3.764;2023-05-23T04:25:57;13.00;99.90
13446;DHT22;6795;51.232;3.764;2023-05-23T04:28:26;12.90;99.90
13446;DHT22;6795;51.232;3.764;2023-05-23T04:30:54;12.90;99.90
13446;DHT22;6795;51.232;3.764;2023-05-23T04:33:26;12.90;99.90
13446;DHT22;6795;51.232;3.764;2023-05-23T04:35:56;12.90;99.90
13446;DHT22;6795;51.232;3.764;2023-05-23T04:38:24;12.90;99.90
13446;DHT22;6795;51.232;3.764;2023-05-23T04:40:53;12.90;99.90
13446;DHT22;6795;51.232;3.764;2023-05-23T04:43:23;12.90;99.90
13446;DHT22;6795;51.232;3.764;2023-05-23T04:45:53;12.90;99.90
13446;DHT22;6795;51.232;3.764;2023-05-23T04:48:22;12.80;99.90
13446;DHT22;6795;51.232;3.764;2023-05-23T04:50:52;12.70;99.90
13446;DHT22;6795;51.232;3.764;2023-05-23T04:53:22;12.70;99.90
13446;DHT22;6795;51.232;3.764;2023-05-23T04:58:19;12.60;99.90
13446;DHT22;6795;51.232;3.764;2023-05-23T05:43:04;12.50;99.90
13446;DHT22;6795;51.232;3.764;2023-05-23T06:10:21;12.70;99.90
13446;DHT22;6795;51.232;3.764;2023-05-23T06:55:10;12.60;99.90
13446;DHT22;6795;51.232;3.764;2023-05-23T06:57:41;12.40;99.90
13446;DHT22;6795;51.232;3.764;2023-05-23T07:00:10;12.50;99.90
13446;DHT22;6795;51.232;3.764;2023-05-23T07:02:39;12.50;99.90
13446;DHT22;6795;51.232;3.764;2023-05-23T07:05:08;12.60;99.90
13446;DHT22;6795;51.232;3.764;2023-05-23T07:07:37;12.70;99.90
13446;DHT22;6795;51.232;3.764;2023-05-23T07:10:08;12.70;99.90
13446;DHT22;6795;51.232;3.764;2023-05-23T07:12:37;12.70;99.90
13446;DHT22;6795;51.232;3.764;2023-05-23T07:15:06;12.80;99.90
13446;DHT22;6795;51.232;3.764;2023-05-23T07:17:35;12.70;99.90
13446;DHT22;6795;51.232;3.764;2023-05-23T07:20:04;12.70;99.90
13446;DHT22;6795;51.232;3.764;2023-05-23T07:22:34;12.70;99.90
13446;DHT22;6795;51.232;3.764;2023-05-23T07:25:03;12.70;99.90
13446;DHT22;6795;51.232;3.764;2023-05-23T07:27:33;12.70;99.90
13446;DHT22;6795;51.232;3.764;2023-05-23T07:30:01;12.70;99.90
13446;DHT22;6795;51.232;3.764;2023-05-23T07:32:30;12.80;99.90
13446;DHT22;6795;51.232;3.764;2023-05-23T07:34:58;12.70;99.90
13446;DHT22;6795;51.232;3.764;2023-05-23T07:37:27;12.70;99.90
13446;DHT22;6795;51.232;3.764;2023-05-23T07:39:55;12.70;99.90
13446;DHT22;6795;51.232;3.764;2023-05-23T07:42:24;12.60;99.90
13446;DHT22;6795;51.232;3.764;2023-05-23T07:44:54;12.60;99.90
13446;DHT22;6795;51.232;3.764;2023-05-23T07:47:22;12.50;99.90
13446;DHT22;6795;51.232;3.764;2023-05-23T07:49:51;12.50;99.90
13446;DHT22;6795;51.232;3.764;2023-05-23T07:52:19;12.50;99.90
13446;DHT22;6795;51.232;3.764;2023-05-23T07:54:48;12.40;99.90
13446;DHT22;6795;51.232;3.764;2023-05-23T07:57:16;12.40;99.90
13446;DHT22;6795;51.232;3.764;2023-05-23T07:59:44;12.50;99.90
13446;DHT22;6795;51.232;3.764;2023-05-23T08:02:14;12.70;99.90
13446;DHT22;6795;51.232;3.764;2023-05-23T08:04:43;12.80;99.90
13446;DHT22;6795;51.232;3.764;2023-05-23T08:07:12;13.00;99.90
13446;DHT22;6795;51.232;3.764;2023-05-23T08:09:41;13.00;99.90
13446;DHT22;6795;51.232;3.764;2023-05-23T08:12:10;13.20;99.90
13446;DHT22;6795;51.232;3.764;2023-05-23T08:14:38;13.30;99.90
13446;DHT22;6795;51.232;3.764;2023-05-23T08:17:19;13.40;99.90
13446;DHT22;6795;51.232;3.764;2023-05-23T08:19:47;13.60;99.90
13446;DHT22;6795;51.232;3.764;2023-05-23T08:22:16;13.60;99.90
13446;DHT22;6795;51.232;3.764;2023-05-23T08:24:44;13.70;99.90
13446;DHT22;6795;51.232;3.764;2023-05-23T08:27:13;13.90;99.90
13446;DHT22;6795;51.232;3.764;2023-05-23T08:29:41;13.80;99.90
13446;DHT22;6795;51.232;3.764;2023-05-23T08:32:11;13.80;99.90
13446;DHT22;6795;51.232;3.764;2023-05-23T08:34:41;13.80;99.90
13446;DHT22;6795;51.232;3.764;2023-05-23T08:37:10;13.80;99.90
13446;DHT22;6795;51.232;3.764;2023-05-23T08:39:38;13.90;99.90
13446;DHT22;6795;51.232;3.764;2023-05-23T08:42:07;14.10;99.90
13446;DHT22;6795;51.232;3.764;2023-05-23T08:44:36;14.30;99.90
13446;DHT22;6795;51.232;3.764;2023-05-23T08:47:07;14.50;99.90
13446;DHT22;6795;51.232;3.764;2023-05-23T08:49:37;14.60;99.90
13446;DHT22;6795;51.232;3.764;2023-05-23T08:52:11;14.70;99.90
13446;DHT22;6795;51.232;3.764;2023-05-23T08:54:43;14.90;99.90
13446;DHT22;6795;51.232;3.764;2023-05-23T08:57:12;15.30;99.90
13446;DHT22;6795;51.232;3.764;2023-05-23T08:59:40;15.40;99.90
13446;DHT22;6795;51.232;3.764;2023-05-23T09:02:10;15.50;99.90
13446;DHT22;6795;51.232;3.764;2023-05-23T09:04:39;15.10;99.90
13446;DHT22;6795;51.232;3.764;2023-05-23T09:07:09;14.90;99.90
13446;DHT22;6795;51.232;3.764;2023-05-23T09:09:38;14.80;99.90
13446;DHT22;6795;51.232;3.764;2023-05-23T09:12:07;14.80;99.90
13446;DHT22;6795;51.232;3.764;2023-05-23T09:14:36;14.80;99.90
13446;DHT22;6795;51.232;3.764;2023-05-23T09:17:04;15.00;99.90
13446;DHT22;6795;51.232;3.764;2023-05-23T09:19:33;15.20;99.90
13446;DHT22;6795;51.232;3.764;2023-05-23T09:22:01;15.20;99.90
13446;DHT22;6795;51.232;3.764;2023-05-23T09:24:35;15.80;99.90
13446;DHT22;6795;51.232;3.764;2023-05-23T09:27:04;16.00;99.90
13446;DHT22;6795;51.232;3.764;2023-05-23T09:32:13;15.90;99.90
13446;DHT22;6795;51.232;3.764;2023-05-23T09:34:41;15.80;99.90
13446;DHT22;6795;51.232;3.764;2023-05-23T09:37:12;15.80;99.90
13446;DHT22;6795;51.232;3.764;2023-05-23T09:39:49;15.80;99.90
13446;DHT22;6795;51.232;3.764;2023-05-23T09:42:21;15.70;99.90
13446;DHT22;6795;51.232;3.764;2023-05-23T09:44:50;15.60;99.90
13446;DHT22;6795;51.232;3.764;2023-05-23T09:47:18;15.70;99.90
13446;DHT22;6795;51.232;3.764;2023-05-23T09:49:47;15.80;99.90
13446;DHT22;6795;51.232;3.764;2023-05-23T09:52:15;15.70;99.90
13446;DHT22;6795;51.232;3.764;2023-05-23T09:54:48;16.20;99.90
13446;DHT22;6795;51.232;3.764;2023-05-23T09:57:18;16.40;99.90
13446;DHT22;6795;51.232;3.764;2023-05-23T09:59:52;16.70;99.90
13446;DHT22;6795;51.232;3.764;2023-05-23T10:02:42;17.00;99.90
13446;DHT22;6795;51.232;3.764;2023-05-23T10:05:30;17.20;99.90
13446;DHT22;6795;51.232;3.764;2023-05-23T10:08:01;17.30;99.90
13446;DHT22;6795;51.232;3.764;2023-05-23T10:23:12;17.40;99.90
13446;DHT22;6795;51.232;3.764;2023-05-23T10:25:43;15.30;99.90
13446;DHT22;6795;51.232;3.764;2023-05-23T10:28:12;15.90;99.90
13446;DHT22;6795;51.232;3.764;2023-05-23T10:30:42;16.40;99.90
13446;DHT22;6795;51.232;3.764;2023-05-23T10:33:13;16.60;99.90
13446;DHT22;6795;51.232;3.764;2023-05-23T10:35:49;16.70;99.90
13446;DHT22;6795;51.232;3.764;2023-05-23T10:38:29;16.70;99.90
13446;DHT22;6795;51.232;3.764;2023-05-23T10:41:09;16.50;99.90
13446;DHT22;6795;51.232;3.764;2023-05-23T10:43:46;16.60;99.90
13446;DHT22;6795;51.232;3.764;2023-05-23T10:46:19;16.60;99.90
13446;DHT22;6795;51.232;3.764;2023-05-23T10:48:53;16.90;99.90
13446;DHT22;6795;51.232;3.764;2023-05-23T10:51:23;17.00;99.90
13446;DHT22;6795;51.232;3.764;2023-05-23T10:53:53;17.00;99.90
13446;DHT22;6795;51.232;3.764;2023-05-23T10:56:23;16.70;99.90
13446;DHT22;6795;51.232;3.764;2023-05-23T10:58:55;16.30;99.90
13446;DHT22;6795;51.232;3.764;2023-05-23T11:01:26;16.50;99.90
13446;DHT22;6795;51.232;3.764;2023-05-23T11:03:54;16.60;99.90
13446;DHT22;6795;51.232;3.764;2023-05-23T11:06:30;16.50;99.90
13446;DHT22;6795;51.232;3.764;2023-05-23T11:09:04;16.80;99.90
13446;DHT22;6795;51.232;3.764;2023-05-23T11:12:02;16.90;99.90
13446;DHT22;6795;51.232;3.764;2023-05-23T11:14:52;16.50;99.90
13446;DHT22;6795;51.232;3.764;2023-05-23T11:17:32;16.70;99.90
13446;DHT22;6795;51.232;3.764;2023-05-23T11:20:03;16.70;99.90
13446;DHT22;6795;51.232;3.764;2023-05-23T11:22:34;16.50;99.90
13446;DHT22;6795;51.232;3.764;2023-05-23T11:25:06;17.00;99.90
13446;DHT22;6795;51.232;3.764;2023-05-23T11:27:38;17.00;99.90
13446;DHT22;6795;51.232;3.764;2023-05-23T11:30:10;16.70;99.90
13446;DHT22;6795;51.232;3.764;2023-05-23T11:32:40;16.80;99.90
13446;DHT22;6795;51.232;3.764;2023-05-23T11:35:10;16.90;99.90
13446;DHT22;6795;51.232;3.764;2023-05-23T11:37:38;16.70;99.90
13446;DHT22;6795;51.232;3.764;2023-05-23T11:40:29;16.60;99.90
13446;DHT22;6795;51.232;3.764;2023-05-23T11:43:02;16.20;99.90
13446;DHT22;6795;51.232;3.764;2023-05-23T11:45:32;15.90;99.90
13446;DHT22;6795;51.232;3.764;2023-05-23T11:48:05;16.10;99.90
13446;DHT22;6795;51.232;3.764;2023-05-23T11:50:42;17.00;99.90
13446;DHT22;6795;51.232;3.764;2023-05-23T11:53:12;17.60;99.90
13446;DHT22;6795;51.232;3.764;2023-05-23T11:55:48;17.60;99.90
13446;DHT22;6795;51.232;3.764;2023-05-23T11:58:19;17.60;99.90
13446;DHT22;6795;51.232;3.764;2023-05-23T12:00:47;17.10;99.90
13446;DHT22;6795;51.232;3.764;2023-05-23T12:03:16;16.50;99.90
13446;DHT22;6795;51.232;3.764;2023-05-23T12:05:45;16.20;99.90
13446;DHT22;6795;51.232;3.764;2023-05-23T12:08:13;16.40;99.90
13446;DHT22;6795;51.232;3.764;2023-05-23T12:10:50;16.90;99.90
13446;DHT22;6795;51.232;3.764;2023-05-23T12:13:23;17.40;99.90
13446;DHT22;6795;51.232;3.764;2023-05-23T12:15:55;17.20;99.90
13446;DHT22;6795;51.232;3.764;2023-05-23T12:18:27;16.60;99.90
13446;DHT22;6795;51.232;3.764;2023-05-23T12:20:59;16.20;99.90
13446;DHT22;6795;51.232;3.764;2023-05-23T12:23:29;16.70;99.90
13446;DHT22;6795;51.232;3.764;2023-05-23T12:26:04;17.40;99.90
13446;DHT22;6795;51.232;3.764;2023-05-23T12:28:39;17.10;99.90
13446;DHT22;6795;51.232;3.764;2023-05-23T12:31:10;17.80;99.90
13446;DHT22;6795;51.232;3.764;2023-05-23T12:33:39;17.70;99.90
13446;DHT22;6795;51.232;3.764;2023-05-23T12:36:10;18.00;99.90
13446;DHT22;6795;51.232;3.764;2023-05-23T12:38:39;18.10;99.90
13446;DHT22;6795;51.232;3.764;2023-05-23T12:41:13;17.70;99.90
13446;DHT22;6795;51.232;3.764;2023-05-23T12:43:50;17.30;99.90
13446;DHT22;6795;51.232;3.764;2023-05-23T12:46:19;17.20;99.90
13446;DHT22;6795;51.232;3.764;2023-05-23T12:48:50;17.10;99.90
13446;DHT22;6795;51.232;3.764;2023-05-23T12:51:19;17.10;99.90
13446;DHT22;6795;51.232;3.764;2023-05-23T12:53:48;17.10;99.90
13446;DHT22;6795;51.232;3.764;2023-05-23T12:56:16;17.00;99.90
13446;DHT22;6795;51.232;3.764;2023-05-23T13:01:15;17.50;99.90
13446;DHT22;6795;51.232;3.764;2023-05-23T13:03:44;18.10;99.90
13446;DHT22;6795;51.232;3.764;2023-05-23T13:06:12;17.90;99.90
13446;DHT22;6795;51.232;3.764;2023-05-23T13:08:41;17.80;99.90
13446;DHT22;6795;51.232;3.764;2023-05-23T13:11:10;17.60;99.90
13446;DHT22;6795;51.232;3.764;2023-05-23T13:21:06;17.90;99.90
13446;DHT22;6795;51.232;3.764;2023-05-23T13:23:35;17.00;99.90
13446;DHT22;6795;51.232;3.764;2023-05-23T13:26:04;17.10;99.90
13446;DHT22;6795;51.232;3.764;2023-05-23T13:28:34;17.70;99.90
13446;DHT22;6795;51.232;3.764;2023-05-23T13:31:02;17.90;99.90
13446;DHT22;6795;51.232;3.764;2023-05-23T13:33:30;17.40;99.90
13446;DHT22;6795;51.232;3.764;2023-05-23T13:36:00;17.00;99.90
13446;DHT22;6795;51.232;3.764;2023-05-23T13:38:29;17.20;99.90
13446;DHT22;6795;51.232;3.764;2023-05-23T13:41:00;17.90;99.90
13446;DHT22;6795;51.232;3.764;2023-05-23T13:43:28;18.30;99.10
13446;DHT22;6795;51.232;3.764;2023-05-23T13:45:57;18.00;99.50
13446;DHT22;6795;51.232;3.764;2023-05-23T13:48:27;17.40;99.90
13446;DHT22;6795;51.232;3.764;2023-05-23T13:50:55;17.60;99.70
13446;DHT22;6795;51.232;3.764;2023-05-23T13:53:25;17.50;99.60
13446;DHT22;6795;51.232;3.764;2023-05-23T13:55:53;17.30;99.90
13446;DHT22;6795;51.232;3.764;2023-05-23T13:58:22;18.10;99.70
13446;DHT22;6795;51.232;3.764;2023-05-23T14:00:50;18.00;99.80
13446;DHT22;6795;51.232;3.764;2023-05-23T14:03:21;18.20;99.80
13446;DHT22;6795;51.232;3.764;2023-05-23T14:05:50;18.60;99.90
13446;DHT22;6795;51.232;3.764;2023-05-23T14:08:19;18.00;98.20
13446;DHT22;6795;51.232;3.764;2023-05-23T14:10:49;17.80;99.20
13446;DHT22;6795;51.232;3.764;2023-05-23T14:13:18;17.90;99.10
13446;DHT22;6795;51.232;3.764;2023-05-23T14:15:47;18.00;98.80
13446;DHT22;6795;51.232;3.764;2023-05-23T14:18:17;17.80;98.40
13446;DHT22;6795;51.232;3.764;2023-05-23T14:20:45;17.40;98.80
13446;DHT22;6795;51.232;3.764;2023-05-23T14:23:14;17.80;99.80
13446;DHT22;6795;51.232;3.764;2023-05-23T14:25:42;17.50;99.60
13446;DHT22;6795;51.232;3.764;2023-05-23T14:28:14;17.40;99.60
13446;DHT22;6795;51.232;3.764;2023-05-23T14:30:43;17.30;99.90
13446;DHT22;6795;51.232;3.764;2023-05-23T14:33:11;17.20;99.90
13446;DHT22;6795;51.232;3.764;2023-05-23T14:35:41;17.50;99.60
13446;DHT22;6795;51.232;3.764;2023-05-23T14:38:10;17.70;99.90
13446;DHT22;6795;51.232;3.764;2023-05-23T14:40:38;17.60;99.00
13446;DHT22;6795;51.232;3.764;2023-05-23T14:43:07;16.80;99.90
13446;DHT22;6795;51.232;3.764;2023-05-23T14:45:36;17.20;99.90
13446;DHT22;6795;51.232;3.764;2023-05-23T14:48:06;17.30;99.50
13446;DHT22;6795;51.232;3.764;2023-05-23T14:50:34;17.30;99.50
13446;DHT22;6795;51.232;3.764;2023-05-23T14:53:03;17.40;98.70
13446;DHT22;6795;51.232;3.764;2023-05-23T14:55:31;17.20;98.90
13446;DHT22;6795;51.232;3.764;2023-05-23T14:58:00;17.60;99.50
13446;DHT22;6795;51.232;3.764;2023-05-23T15:00:29;18.00;99.10
13446;DHT22;6795;51.232;3.764;2023-05-23T15:02:59;17.80;98.90
13446;DHT22;6795;51.232;3.764;2023-05-23T15:05:28;17.60;99.00
13446;DHT22;6795;51.232;3.764;2023-05-23T15:07:56;17.70;99.50
13446;DHT22;6795;51.232;3.764;2023-05-23T15:10:25;17.60;98.80
13446;DHT22;6795;51.232;3.764;2023-05-23T15:12:53;17.30;99.10
13446;DHT22;6795;51.232;3.764;2023-05-23T15:15:22;17.10;99.70
13446;DHT22;6795;51.232;3.764;2023-05-23T15:17:50;16.60;99.80
13446;DHT22;6795;51.232;3.764;2023-05-23T15:20:20;17.00;99.90
13446;DHT22;6795;51.232;3.764;2023-05-23T15:22:48;17.20;99.00
13446;DHT22;6795;51.232;3.764;2023-05-23T15:25:17;17.20;98.90
13446;DHT22;6795;51.232;3.764;2023-05-23T15:28:04;17.40;98.60
13446;DHT22;6795;51.232;3.764;2023-05-23T15:30:33;17.40;98.80
13446;DHT22;6795;51.232;3.764;2023-05-23T15:33:02;17.20;98.10
13446;DHT22;6795;51.232;3.764;2023-05-23T15:35:33;17.00;98.30
13446;DHT22;6795;51.232;3.764;2023-05-23T15:38:01;16.70;98.10
13446;DHT22;6795;51.232;3.764;2023-05-23T15:40:29;16.50;98.20
13446;DHT22;6795;51.232;3.764;2023-05-23T15:42:58;16.30;98.00
13446;DHT22;6795;51.232;3.764;2023-05-23T15:45:26;16.30;97.90
13446;DHT22;6795;51.232;3.764;2023-05-23T15:47:55;16.10;98.50
13446;DHT22;6795;51.232;3.764;2023-05-23T15:50:23;16.30;98.40
13446;DHT22;6795;51.232;3.764;2023-05-23T15:52:53;16.30;99.00
13446;DHT22;6795;51.232;3.764;2023-05-23T15:55:21;16.20;98.60
13446;DHT22;6795;51.232;3.764;2023-05-23T15:57:50;16.00;98.30
13446;DHT22;6795;51.232;3.764;2023-05-23T16:00:19;15.90;98.80
13446;DHT22;6795;51.232;3.764;2023-05-23T16:02:48;16.20;98.70
13446;DHT22;6795;51.232;3.764;2023-05-23T16:05:16;16.50;98.10
13446;DHT22;6795;51.232;3.764;2023-05-23T16:07:47;16.40;98.60
13446;DHT22;6795;51.232;3.764;2023-05-23T16:10:17;16.40;98.90
13446;DHT22;6795;51.232;3.764;2023-05-23T16:12:46;16.70;99.20
13446;DHT22;6795;51.232;3.764;2023-05-23T16:15:14;16.70;98.40
13446;DHT22;6795;51.232;3.764;2023-05-23T16:17:43;17.00;97.80
13446;DHT22;6795;51.232;3.764;2023-05-23T16:20:14;16.70;98.70
13446;DHT22;6795;51.232;3.764;2023-05-23T16:22:42;16.20;99.10
13446;DHT22;6795;51.232;3.764;2023-05-23T16:25:11;16.00;99.10
13446;DHT22;6795;51.232;3.764;2023-05-23T16:27:41;15.80;99.10
13446;DHT22;6795;51.232;3.764;2023-05-23T16:30:10;15.80;99.40
13446;DHT22;6795;51.232;3.764;2023-05-23T16:32:38;15.80;99.90
13446;DHT22;6795;51.232;3.764;2023-05-23T16:35:08;15.60;99.90
13446;DHT22;6795;51.232;3.764;2023-05-23T16:37:37;15.60;99.90
13446;DHT22;6795;51.232;3.764;2023-05-23T16:40:06;15.40;99.90
13446;DHT22;6795;51.232;3.764;2023-05-23T16:42:35;15.30;99.90
13446;DHT22;6795;51.232;3.764;2023-05-23T16:45:06;15.10;99.90
13446;DHT22;6795;51.232;3.764;2023-05-23T16:47:35;15.10;99.90
13446;DHT22;6795;51.232;3.764;2023-05-23T16:50:04;15.30;99.90
13446;DHT22;6795;51.232;3.764;2023-05-23T16:52:34;15.20;99.90
13446;DHT22;6795;51.232;3.764;2023-05-23T16:55:02;15.10;99.90
13446;DHT22;6795;51.232;3.764;2023-05-23T16:57:31;15.00;99.90
13446;DHT22;6795;51.232;3.764;2023-05-23T16:59:59;15.00;99.90
13446;DHT22;6795;51.232;3.764;2023-05-23T17:02:32;14.80;99.90
13446;DHT22;6795;51.232;3.764;2023-05-23T17:05:01;14.60;99.90
13446;DHT22;6795;51.232;3.764;2023-05-23T17:07:29;14.40;99.90
13446;DHT22;6795;51.232;3.764;2023-05-23T17:09:58;14.20;99.90
13446;DHT22;6795;51.232;3.764;2023-05-23T17:12:27;14.00;99.90
13446;DHT22;6795;51.232;3.764;2023-05-23T17:14:55;13.80;99.90
13446;DHT22;6795;51.232;3.764;2023-05-23T17:17:23;13.70;99.90
13446;DHT22;6795;51.232;3.764;2023-05-23T18:24:35;13.60;99.90
13446;DHT22;6795;51.232;3.764;2023-05-23T18:27:05;12.40;99.90
13446;DHT22;6795;51.232;3.764;2023-05-23T18:29:34;12.30;99.90
13446;DHT22;6795;51.232;3.764;2023-05-23T18:32:05;12.30;99.90
13446;DHT22;6795;51.232;3.764;2023-05-23T18:34:34;12.20;99.90
13446;DHT22;6795;51.232;3.764;2023-05-23T18:37:02;12.20;99.90
13446;DHT22;6795;51.232;3.764;2023-05-23T18:39:31;12.20;99.90
13446;DHT22;6795;51.232;3.764;2023-05-23T18:41:59;12.20;99.90
13446;DHT22;6795;51.232;3.764;2023-05-23T18:44:30;12.10;99.90
13446;DHT22;6795;51.232;3.764;2023-05-23T18:46:59;12.10;99.90
13446;DHT22;6795;51.232;3.764;2023-05-23T18:49:27;12.00;99.90
13446;DHT22;6795;51.232;3.764;2023-05-23T18:51:56;11.90;99.90
13446;DHT22;6795;51.232;3.764;2023-05-23T18:54:24;11.80;99.90
13446;DHT22;6795;51.232;3.764;2023-05-23T18:56:53;11.80;99.90
13446;DHT22;6795;51.232;3.764;2023-05-23T18:59:21;11.70;99.90
13446;DHT22;6795;51.232;3.764;2023-05-23T19:01:51;11.70;99.90
13446;DHT22;6795;51.232;3.764;2023-05-23T19:04:21;11.70;99.90
13446;DHT22;6795;51.232;3.764;2023-05-23T19:06:52;11.60;99.90
13446;DHT22;6795;51.232;3.764;2023-05-23T19:09:21;11.50;99.90
13446;DHT22;6795;51.232;3.764;2023-05-23T19:11:49;11.50;99.90
13446;DHT22;6795;51.232;3.764;2023-05-23T19:16:46;11.40;99.90
13446;DHT22;6795;51.232;3.764;2023-05-23T19:49:10;11.30;99.90
13446;DHT22;6795;51.232;3.764;2023-05-23T19:51:39;10.60;99.90
13446;DHT22;6795;51.232;3.764;2023-05-23T19:54:09;10.60;99.90
13446;DHT22;6795;51.232;3.764;2023-05-23T19:56:39;10.60;99.90
13446;DHT22;6795;51.232;3.764;2023-05-23T19:59:11;10.50;99.90
13446;DHT22;6795;51.232;3.764;2023-05-23T20:01:39;10.50;99.90
13446;DHT22;6795;51.232;3.764;2023-05-23T20:04:08;10.50;99.90
13446;DHT22;6795;51.232;3.764;2023-05-23T20:06:39;10.40;99.90
13446;DHT22;6795;51.232;3.764;2023-05-23T20:09:09;10.40;99.90
13446;DHT22;6795;51.232;3.764;2023-05-23T20:11:37;10.40;99.90
13446;DHT22;6795;51.232;3.764;2023-05-23T20:14:08;10.40;99.90
13446;DHT22;6795;51.232;3.764;2023-05-23T20:16:37;10.40;99.90
13446;DHT22;6795;51.232;3.764;2023-05-23T20:19:05;10.40;99.90
13446;DHT22;6795;51.232;3.764;2023-05-23T20:21:34;10.40;99.90
13446;DHT22;6795;51.232;3.764;2023-05-23T20:24:05;10.40;99.90
13446;DHT22;6795;51.232;3.764;2023-05-23T20:26:35;10.40;99.90
13446;DHT22;6795;51.232;3.764;2023-05-23T20:29:03;10.40;99.90
13446;DHT22;6795;51.232;3.764;2023-05-23T20:31:33;10.50;99.90
13446;DHT22;6795;51.232;3.764;2023-05-23T20:34:03;10.50;99.90
13446;DHT22;6795;51.232;3.764;2023-05-23T20:36:31;10.40;99.90
13446;DHT22;6795;51.232;3.764;2023-05-23T20:39:00;10.40;99.90
13446;DHT22;6795;51.232;3.764;2023-05-23T20:41:28;10.30;99.90
13446;DHT22;6795;51.232;3.764;2023-05-23T20:43:58;10.30;99.90
13446;DHT22;6795;51.232;3.764;2023-05-23T20:46:28;10.30;99.90
13446;DHT22;6795;51.232;3.764;2023-05-23T20:48:57;10.20;99.90
13446;DHT22;6795;51.232;3.764;2023-05-23T20:51:25;10.20;99.90
13446;DHT22;6795;51.232;3.764;2023-05-23T20:53:54;10.20;99.90
13446;DHT22;6795;51.232;3.764;2023-05-23T20:56:22;10.20;99.90
13446;DHT22;6795;51.232;3.764;2023-05-23T20:58:50;10.10;99.90
13446;DHT22;6795;51.232;3.764;2023-05-23T21:01:20;10.20;99.90
13446;DHT22;6795;51.232;3.764;2023-05-23T21:03:49;10.10;99.90
13446;DHT22;6795;51.232;3.764;2023-05-23T21:06:18;10.10;99.90
13446;DHT22;6795;51.232;3.764;2023-05-23T21:33:40;9.90;99.90
13446;DHT22;6795;51.232;3.764;2023-05-23T21:36:09;9.60;99.90
13446;DHT22;6795;51.232;3.764;2023-05-23T21:41:07;9.50;99.90
13446;DHT22;6795;51.232;3.764;2023-05-23T21:43:35;9.30;99.90
13446;DHT22;6795;51.232;3.764;2023-05-23T21:46:04;9.20;99.90
13446;DHT22;6795;51.232;3.764;2023-05-23T21:48:32;9.10;99.90
13446;DHT22;6795;51.232;3.764;2023-05-23T21:51:00;9.10;99.90
13446;DHT22;6795;51.232;3.764;2023-05-23T21:53:33;9.10;99.90
13446;DHT22;6795;51.232;3.764;2023-05-23T21:56:02;9.10;99.90
13446;DHT22;6795;51.232;3.764;2023-05-23T22:18:28;9.10;99.90
13446;DHT22;6795;51.232;3.764;2023-05-23T22:21:16;9.10;99.90
13446;DHT22;6795;51.232;3.764;2023-05-23T22:23:45;9.00;99.90
13446;DHT22;6795;51.232;3.764;2023-05-23T22:26:14;8.90;99.90
13446;DHT22;6795;51.232;3.764;2023-05-23T22:28:43;8.90;99.90
13446;DHT22;6795;51.232;3.764;2023-05-23T22:31:12;8.90;99.90
13446;DHT22;6795;51.232;3.764;2023-05-23T22:33:41;8.90;99.90
13446;DHT22;6795;51.232;3.764;2023-05-23T22:36:10;9.00;99.90
13446;DHT22;6795;51.232;3.764;2023-05-23T22:38:38;8.90;99.90
13446;DHT22;6795;51.232;3.764;2023-05-23T22:41:07;8.90;99.90
13446;DHT22;6795;51.232;3.764;2023-05-23T22:43:36;8.90;99.90
13446;DHT22;6795;51.232;3.764;2023-05-23T22:46:07;9.00;99.90
13446;DHT22;6795;51.232;3.764;2023-05-23T22:48:35;9.00;99.90
13446;DHT22;6795;51.232;3.764;2023-05-23T22:51:05;9.00;99.90
13446;DHT22;6795;51.232;3.764;2023-05-23T22:53:38;8.90;99.90
13446;DHT22;6795;51.232;3.764;2023-05-23T22:56:07;8.90;99.90
13446;DHT22;6795;51.232;3.764;2023-05-23T22:58:36;8.80;99.90
13446;DHT22;6795;51.232;3.764;2023-05-23T23:01:05;8.80;99.90
13446;DHT22;6795;51.232;3.764;2023-05-23T23:03:33;8.80;99.90
13446;DHT22;6795;51.232;3.764;2023-05-23T23:06:02;8.80;99.90
13446;DHT22;6795;51.232;3.764;2023-05-23T23:08:32;8.80;99.90
13446;DHT22;6795;51.232;3.764;2023-05-23T23:11:01;8.70;99.90
13446;DHT22;6795;51.232;3.764;2023-05-23T23:13:30;8.70;99.90
13446;DHT22;6795;51.232;3.764;2023-05-23T23:15:59;8.70;99.90
13446;DHT22;6795;51.232;3.764;2023-05-23T23:18:28;8.60;99.90
13446;DHT22;6795;51.232;3.764;2023-05-23T23:20:56;8.70;99.90
13446;DHT22;6795;51.232;3.764;2023-05-23T23:23:25;8.70;99.90
13446;DHT22;6795;51.232;3.764;2023-05-23T23:25:53;8.70;99.90
13446;DHT22;6795;51.232;3.764;2023-05-23T23:28:22;8.60;99.90
13446;DHT22;6795;51.232;3.764;2023-05-23T23:30:50;8.60;99.90
13446;DHT22;6795;51.232;3.764;2023-05-23T23:33:20;8.60;99.90
13446;DHT22;6795;51.232;3.764;2023-05-23T23:40:46;8.70;99.90
13446;DHT22;6795;51.232;3.764;2023-05-23T23:43:14;8.80;99.90
13446;DHT22;6795;51.232;3.764;2023-05-23T23:45:43;8.80;99.90
13446;DHT22;6795;51.232;3.764;2023-05-23T23:48:12;8.80;99.90